sensor_id;sensor_type;location;lat;lon;timestamp;pressure;altitude;pressure_sealevel;temperature;humidity
40872;BME280;26591;43.264;26.940;2022-11-14T00:02:15;100164.31;;;8.76;77.04
40872;BME280;26591;43.264;26.940;2022-11-14T00:04:45;100172.53;;;8.94;76.99
40872;BME280;26591;43.264;26.940;2022-11-14T00:07:10;100181.53;;;9.13;77.13
40872;BME280;26591;43.264;26.940;2022-11-14T00:09:36;100176.56;;;9.10;77.60
40872;BME280;26591;43.264;26.940;2022-11-14T00:12:03;100178.53;;;9.18;77.01
40872;BME280;26591;43.264;26.940;2022-11-14T00:14:30;100177.59;;;9.19;76.80
40872;BME280;26591;43.264;26.940;2022-11-14T00:16:56;100178.00;;;9.24;76.75
40872;BME280;26591;43.264;26.940;2022-11-14T00:19:21;100175.25;;;9.25;76.12
40872;BME280;26591;43.264;26.940;2022-11-14T00:21:47;100170.81;;;9.26;75.95
40872;BME280;26591;43.264;26.940;2022-11-14T00:24:12;100163.59;;;9.07;76.40
40872;BME280;26591;43.264;26.940;2022-11-14T00:26:38;100161.44;;;9.00;77.00
40872;BME280;26591;43.264;26.940;2022-11-14T00:29:04;100167.50;;;8.91;76.79
40872;BME280;26591;43.264;26.940;2022-11-14T00:31:29;100165.34;;;8.96;76.33
40872;BME280;26591;43.264;26.940;2022-11-14T00:33:55;100157.75;;;9.03;75.97
40872;BME280;26591;43.264;26.940;2022-11-14T00:36:21;100159.38;;;8.83;76.02
40872;BME280;26591;43.264;26.940;2022-11-14T00:38:46;100155.13;;;8.70;76.65
40872;BME280;26591;43.264;26.940;2022-11-14T00:41:12;100147.72;;;8.64;76.23
40872;BME280;26591;43.264;26.940;2022-11-14T00:43:37;100154.97;;;8.51;76.72
40872;BME280;26591;43.264;26.940;2022-11-14T00:46:03;100156.03;;;8.48;76.53
40872;BME280;26591;43.264;26.940;2022-11-14T00:48:28;100147.06;;;8.28;76.17
40872;BME280;26591;43.264;26.940;2022-11-14T00:50:54;100143.44;;;7.97;77.45
40872;BME280;26591;43.264;26.940;2022-11-14T00:53:20;100147.16;;;7.94;77.96
40872;BME280;26591;43.264;26.940;2022-11-14T00:55:45;100145.72;;;7.67;78.83
40872;BME280;26591;43.264;26.940;2022-11-14T00:58:11;100150.25;;;7.65;78.52
40872;BME280;26591;43.264;26.940;2022-11-14T01:00:37;100143.69;;;7.71;78.91
40872;BME280;26591;43.264;26.940;2022-11-14T01:03:02;100141.28;;;7.90;78.93
40872;BME280;26591;43.264;26.940;2022-11-14T01:05:28;100142.94;;;8.03;77.97
40872;BME280;26591;43.264;26.940;2022-11-14T01:07:54;100139.00;;;8.08;77.55
40872;BME280;26591;43.264;26.940;2022-11-14T01:10:20;100134.81;;;7.94;77.36
40872;BME280;26591;43.264;26.940;2022-11-14T01:12:45;100135.38;;;7.98;77.43
40872;BME280;26591;43.264;26.940;2022-11-14T01:15:11;100127.63;;;7.97;77.27
40872;BME280;26591;43.264;26.940;2022-11-14T01:17:37;100129.66;;;7.82;77.56
40872;BME280;26591;43.264;26.940;2022-11-14T01:20:03;100129.66;;;7.82;77.63
40872;BME280;26591;43.264;26.940;2022-11-14T01:22:29;100127.84;;;7.93;77.52
40872;BME280;26591;43.264;26.940;2022-11-14T01:24:55;100115.41;;;7.73;77.87
40872;BME280;26591;43.264;26.940;2022-11-14T01:27:23;100115.91;;;7.67;77.71
40872;BME280;26591;43.264;26.940;2022-11-14T01:29:49;100108.38;;;7.62;77.80
40872;BME280;26591;43.264;26.940;2022-11-14T01:32:14;100116.88;;;7.54;77.94
40872;BME280;26591;43.264;26.940;2022-11-14T01:37:58;100107.31;;;7.42;77.70
40872;BME280;26591;43.264;26.940;2022-11-14T01:40:24;100117.69;;;7.43;78.09
40872;BME280;26591;43.264;26.940;2022-11-14T01:45:57;100107.50;;;7.16;78.85
40872;BME280;26591;43.264;26.940;2022-11-14T01:48:39;100099.84;;;7.13;78.69
40872;BME280;26591;43.264;26.940;2022-11-14T01:51:27;100107.31;;;6.83;78.93
40872;BME280;26591;43.264;26.940;2022-11-14T01:53:55;100108.56;;;7.02;78.97
40872;BME280;26591;43.264;26.940;2022-11-14T01:56:28;100105.19;;;6.89;79.30
40872;BME280;26591;43.264;26.940;2022-11-14T01:59:06;100103.03;;;6.94;78.51
40872;BME280;26591;43.264;26.940;2022-11-14T02:01:36;100112.56;;;6.72;78.54
40872;BME280;26591;43.264;26.940;2022-11-14T02:04:04;100110.72;;;6.61;79.64
40872;BME280;26591;43.264;26.940;2022-11-14T02:06:32;100106.53;;;6.59;80.25
40872;BME280;26591;43.264;26.940;2022-11-14T02:09:04;100105.63;;;6.71;79.72
40872;BME280;26591;43.264;26.940;2022-11-14T02:11:34;100099.66;;;6.45;78.89
40872;BME280;26591;43.264;26.940;2022-11-14T02:14:00;100107.88;;;6.40;79.30
40872;BME280;26591;43.264;26.940;2022-11-14T02:16:26;100109.22;;;6.21;80.27
40872;BME280;26591;43.264;26.940;2022-11-14T02:18:52;100109.69;;;6.15;81.10
40872;BME280;26591;43.264;26.940;2022-11-14T02:21:18;100109.22;;;6.21;81.27
40872;BME280;26591;43.264;26.940;2022-11-14T02:23:43;100105.53;;;6.48;81.33
40872;BME280;26591;43.264;26.940;2022-11-14T02:26:09;100107.97;;;6.63;81.20
40872;BME280;26591;43.264;26.940;2022-11-14T02:28:35;100110.22;;;6.56;80.79
40872;BME280;26591;43.264;26.940;2022-11-14T02:31:00;100113.72;;;6.68;80.23
40872;BME280;26591;43.264;26.940;2022-11-14T02:33:26;100112.59;;;6.83;80.34
40872;BME280;26591;43.264;26.940;2022-11-14T02:35:51;100113.91;;;6.89;79.95
40872;BME280;26591;43.264;26.940;2022-11-14T02:38:17;100111.50;;;6.86;80.06
40872;BME280;26591;43.264;26.940;2022-11-14T02:40:42;100108.75;;;6.76;80.27
40872;BME280;26591;43.264;26.940;2022-11-14T02:43:08;100112.78;;;6.69;81.19
40872;BME280;26591;43.264;26.940;2022-11-14T02:45:33;100107.91;;;6.76;80.79
40872;BME280;26591;43.264;26.940;2022-11-14T02:47:59;100111.63;;;6.49;81.29
40872;BME280;26591;43.264;26.940;2022-11-14T02:50:24;100108.16;;;6.48;81.61
40872;BME280;26591;43.264;26.940;2022-11-14T02:52:50;100110.50;;;6.64;81.18
40872;BME280;26591;43.264;26.940;2022-11-14T02:55:18;100115.41;;;6.69;80.90
40872;BME280;26591;43.264;26.940;2022-11-14T02:57:44;100114.25;;;6.73;81.55
40872;BME280;26591;43.264;26.940;2022-11-14T03:00:10;100102.84;;;6.72;81.40
40872;BME280;26591;43.264;26.940;2022-11-14T03:02:35;100109.94;;;6.83;81.11
40872;BME280;26591;43.264;26.940;2022-11-14T03:05:19;100109.19;;;6.70;82.07
40872;BME280;26591;43.264;26.940;2022-11-14T03:07:45;100100.97;;;6.86;81.18
40872;BME280;26591;43.264;26.940;2022-11-14T03:10:11;100108.63;;;6.78;81.85
40872;BME280;26591;43.264;26.940;2022-11-14T03:12:38;100098.34;;;6.86;81.68
40872;BME280;26591;43.264;26.940;2022-11-14T03:15:07;100099.56;;;6.93;81.41
40872;BME280;26591;43.264;26.940;2022-11-14T03:17:33;100103.50;;;6.87;81.67
40872;BME280;26591;43.264;26.940;2022-11-14T03:19:59;100101.03;;;6.97;81.70
40872;BME280;26591;43.264;26.940;2022-11-14T03:22:26;100098.94;;;6.78;81.06
40872;BME280;26591;43.264;26.940;2022-11-14T03:24:52;100107.16;;;6.74;81.29
40872;BME280;26591;43.264;26.940;2022-11-14T03:27:18;100103.22;;;6.79;80.96
40872;BME280;26591;43.264;26.940;2022-11-14T03:29:43;100101.84;;;6.86;80.82
40872;BME280;26591;43.264;26.940;2022-11-14T03:32:09;100098.81;;;6.80;81.41
40872;BME280;26591;43.264;26.940;2022-11-14T03:34:34;100097.75;;;6.82;81.03
40872;BME280;26591;43.264;26.940;2022-11-14T03:37:00;100103.94;;;6.70;81.58
40872;BME280;26591;43.264;26.940;2022-11-14T03:39:26;100094.97;;;6.72;81.37
40872;BME280;26591;43.264;26.940;2022-11-14T03:41:51;100105.09;;;6.66;81.81
40872;BME280;26591;43.264;26.940;2022-11-14T03:44:17;100099.50;;;6.70;81.30
40872;BME280;26591;43.264;26.940;2022-11-14T03:46:42;100097.53;;;6.85;82.00
40872;BME280;26591;43.264;26.940;2022-11-14T03:49:08;100098.91;;;6.67;81.24
40872;BME280;26591;43.264;26.940;2022-11-14T03:51:34;100106.22;;;6.75;81.44
40872;BME280;26591;43.264;26.940;2022-11-14T03:53:59;100101.47;;;6.91;81.07
40872;BME280;26591;43.264;26.940;2022-11-14T03:56:24;100111.44;;;6.63;81.81
40872;BME280;26591;43.264;26.940;2022-11-14T03:58:50;100112.63;;;6.59;81.14
40872;BME280;26591;43.264;26.940;2022-11-14T04:01:15;100110.47;;;6.53;81.50
40872;BME280;26591;43.264;26.940;2022-11-14T04:03:41;100112.22;;;6.77;81.28
40872;BME280;26591;43.264;26.940;2022-11-14T04:06:06;100104.94;;;6.92;81.30
40872;BME280;26591;43.264;26.940;2022-11-14T04:08:32;100103.53;;;6.99;81.50
40872;BME280;26591;43.264;26.940;2022-11-14T04:10:58;100110.84;;;7.07;80.66
40872;BME280;26591;43.264;26.940;2022-11-14T04:13:23;100109.06;;;7.18;80.62
40872;BME280;26591;43.264;26.940;2022-11-14T04:15:58;100100.91;;;7.10;80.10
40872;BME280;26591;43.264;26.940;2022-11-14T04:18:25;100101.84;;;6.98;79.97
40872;BME280;26591;43.264;26.940;2022-11-14T04:20:51;100102.94;;;6.95;80.00
40872;BME280;26591;43.264;26.940;2022-11-14T04:23:17;100106.66;;;7.04;79.36
40872;BME280;26591;43.264;26.940;2022-11-14T04:25:44;100111.06;;;7.03;79.38
40872;BME280;26591;43.264;26.940;2022-11-14T04:28:10;100111.44;;;6.99;79.25
40872;BME280;26591;43.264;26.940;2022-11-14T04:30:35;100117.69;;;6.74;79.96
40872;BME280;26591;43.264;26.940;2022-11-14T04:33:01;100113.56;;;6.58;79.63
40872;BME280;26591;43.264;26.940;2022-11-14T04:35:26;100126.31;;;6.76;79.81
40872;BME280;26591;43.264;26.940;2022-11-14T04:37:52;100118.06;;;6.80;80.17
40872;BME280;26591;43.264;26.940;2022-11-14T04:40:17;100123.25;;;6.93;80.34
40872;BME280;26591;43.264;26.940;2022-11-14T04:42:43;100123.88;;;7.08;79.98
40872;BME280;26591;43.264;26.940;2022-11-14T04:45:09;100120.78;;;7.03;80.18
40872;BME280;26591;43.264;26.940;2022-11-14T04:47:35;100124.00;;;6.95;79.55
40872;BME280;26591;43.264;26.940;2022-11-14T04:50:01;100126.47;;;6.85;79.89
40872;BME280;26591;43.264;26.940;2022-11-14T04:52:27;100121.03;;;6.64;80.06
40872;BME280;26591;43.264;26.940;2022-11-14T04:54:52;100123.31;;;6.69;80.73
40872;BME280;26591;43.264;26.940;2022-11-14T04:57:18;100120.91;;;6.66;80.61
40872;BME280;26591;43.264;26.940;2022-11-14T04:59:43;100127.88;;;6.78;81.32
40872;BME280;26591;43.264;26.940;2022-11-14T05:02:09;100132.47;;;6.87;81.07
40872;BME280;26591;43.264;26.940;2022-11-14T05:04:34;100128.13;;;6.75;80.56
40872;BME280;26591;43.264;26.940;2022-11-14T05:07:00;100126.81;;;6.81;81.34
40872;BME280;26591;43.264;26.940;2022-11-14T05:09:25;100134.72;;;6.81;80.73
40872;BME280;26591;43.264;26.940;2022-11-14T05:11:51;100135.81;;;6.90;80.92
40872;BME280;26591;43.264;26.940;2022-11-14T05:14:17;100129.25;;;6.60;80.87
40872;BME280;26591;43.264;26.940;2022-11-14T05:16:42;100127.69;;;6.33;80.96
40872;BME280;26591;43.264;26.940;2022-11-14T05:19:08;100132.63;;;6.37;82.08
40872;BME280;26591;43.264;26.940;2022-11-14T05:21:34;100137.59;;;6.53;81.72
40872;BME280;26591;43.264;26.940;2022-11-14T05:23:59;100134.69;;;6.45;81.92
40872;BME280;26591;43.264;26.940;2022-11-14T05:26:25;100144.31;;;6.57;81.20
40872;BME280;26591;43.264;26.940;2022-11-14T05:28:50;100150.53;;;6.56;81.44
40872;BME280;26591;43.264;26.940;2022-11-14T05:31:25;100145.09;;;6.47;81.60
40872;BME280;26591;43.264;26.940;2022-11-14T05:33:51;100147.34;;;6.40;81.84
40872;BME280;26591;43.264;26.940;2022-11-14T05:36:16;100156.72;;;6.55;81.59
40872;BME280;26591;43.264;26.940;2022-11-14T05:38:42;100151.50;;;6.18;82.79
40872;BME280;26591;43.264;26.940;2022-11-14T05:41:12;100156.69;;;6.07;84.09
40872;BME280;26591;43.264;26.940;2022-11-14T05:43:39;100164.56;;;6.07;84.11
40872;BME280;26591;43.264;26.940;2022-11-14T05:46:07;100159.91;;;6.23;83.96
40872;BME280;26591;43.264;26.940;2022-11-14T05:48:33;100156.81;;;5.92;84.85
40872;BME280;26591;43.264;26.940;2022-11-14T05:51:00;100150.81;;;6.03;85.71
40872;BME280;26591;43.264;26.940;2022-11-14T05:53:28;100153.72;;;6.49;84.72
40872;BME280;26591;43.264;26.940;2022-11-14T05:55:54;100154.63;;;6.61;84.78
40872;BME280;26591;43.264;26.940;2022-11-14T05:58:21;100158.47;;;6.68;83.86
40872;BME280;26591;43.264;26.940;2022-11-14T06:00:46;100164.25;;;6.84;83.92
40872;BME280;26591;43.264;26.940;2022-11-14T06:03:12;100163.03;;;6.77;83.42
40872;BME280;26591;43.264;26.940;2022-11-14T06:05:39;100169.66;;;6.83;82.93
40872;BME280;26591;43.264;26.940;2022-11-14T06:08:05;100161.63;;;6.84;82.90
40872;BME280;26591;43.264;26.940;2022-11-14T06:10:31;100162.88;;;7.03;82.22
40872;BME280;26591;43.264;26.940;2022-11-14T06:12:58;100165.03;;;6.98;82.48
40872;BME280;26591;43.264;26.940;2022-11-14T06:15:24;100167.31;;;7.14;82.19
40872;BME280;26591;43.264;26.940;2022-11-14T06:17:51;100168.25;;;7.01;81.96
40872;BME280;26591;43.264;26.940;2022-11-14T06:20:17;100170.03;;;6.90;81.50
40872;BME280;26591;43.264;26.940;2022-11-14T06:22:42;100170.22;;;6.75;82.14
40872;BME280;26591;43.264;26.940;2022-11-14T06:25:08;100175.63;;;6.85;82.53
40872;BME280;26591;43.264;26.940;2022-11-14T06:27:34;100181.03;;;6.95;81.98
40872;BME280;26591;43.264;26.940;2022-11-14T06:29:59;100181.41;;;7.01;82.58
40872;BME280;26591;43.264;26.940;2022-11-14T06:32:25;100185.16;;;7.10;82.61
40872;BME280;26591;43.264;26.940;2022-11-14T06:34:50;100186.47;;;7.16;82.86
40872;BME280;26591;43.264;26.940;2022-11-14T06:37:16;100178.84;;;7.24;82.82
40872;BME280;26591;43.264;26.940;2022-11-14T06:39:41;100179.78;;;7.12;82.92
40872;BME280;26591;43.264;26.940;2022-11-14T06:42:07;100185.63;;;7.04;82.77
40872;BME280;26591;43.264;26.940;2022-11-14T06:44:32;100180.38;;;7.15;82.95
40872;BME280;26591;43.264;26.940;2022-11-14T06:46:58;100190.22;;;7.25;83.83
40872;BME280;26591;43.264;26.940;2022-11-14T06:49:23;100180.41;;;7.38;84.48
40872;BME280;26591;43.264;26.940;2022-11-14T06:51:52;100176.38;;;7.34;84.17
40872;BME280;26591;43.264;26.940;2022-11-14T06:54:18;100174.44;;;7.36;84.26
40872;BME280;26591;43.264;26.940;2022-11-14T06:56:43;100174.69;;;7.44;84.86
40872;BME280;26591;43.264;26.940;2022-11-14T06:59:09;100173.63;;;7.58;84.70
40872;BME280;26591;43.264;26.940;2022-11-14T07:01:35;100174.59;;;7.91;84.41
40872;BME280;26591;43.264;26.940;2022-11-14T07:04:00;100172.06;;;8.01;84.55
40872;BME280;26591;43.264;26.940;2022-11-14T07:06:28;100171.81;;;8.04;84.39
40872;BME280;26591;43.264;26.940;2022-11-14T07:08:55;100170.88;;;8.05;84.20
40872;BME280;26591;43.264;26.940;2022-11-14T07:11:23;100168.25;;;7.94;84.06
40872;BME280;26591;43.264;26.940;2022-11-14T07:13:52;100168.25;;;7.94;83.46
40872;BME280;26591;43.264;26.940;2022-11-14T07:16:18;100170.88;;;7.83;82.68
40872;BME280;26591;43.264;26.940;2022-11-14T07:18:44;100176.00;;;8.07;83.58
40872;BME280;26591;43.264;26.940;2022-11-14T07:21:10;100174.09;;;8.09;82.90
40872;BME280;26591;43.264;26.940;2022-11-14T07:23:40;100178.72;;;8.28;83.03
40872;BME280;26591;43.264;26.940;2022-11-14T07:26:07;100172.84;;;8.36;82.92
40872;BME280;26591;43.264;26.940;2022-11-14T07:28:34;100177.56;;;8.65;83.33
40872;BME280;26591;43.264;26.940;2022-11-14T07:31:04;100180.50;;;8.50;82.25
40872;BME280;26591;43.264;26.940;2022-11-14T07:33:30;100174.16;;;8.30;81.50
40872;BME280;26591;43.264;26.940;2022-11-14T07:35:56;100173.19;;;8.43;82.29
40872;BME280;26591;43.264;26.940;2022-11-14T07:38:22;100164.28;;;8.88;81.89
40872;BME280;26591;43.264;26.940;2022-11-14T07:40:58;100168.63;;;8.89;81.52
40872;BME280;26591;43.264;26.940;2022-11-14T07:43:24;100162.88;;;9.05;80.19
40872;BME280;26591;43.264;26.940;2022-11-14T07:45:50;100166.66;;;8.91;79.30
40872;BME280;26591;43.264;26.940;2022-11-14T07:48:16;100166.78;;;8.89;79.95
40872;BME280;26591;43.264;26.940;2022-11-14T07:50:42;100169.09;;;8.82;80.05
40872;BME280;26591;43.264;26.940;2022-11-14T07:53:08;100175.97;;;8.74;79.34
40872;BME280;26591;43.264;26.940;2022-11-14T07:55:37;100166.09;;;8.87;79.99
40872;BME280;26591;43.264;26.940;2022-11-14T07:58:03;100169.75;;;8.96;79.55
40872;BME280;26591;43.264;26.940;2022-11-14T08:00:29;100171.88;;;8.81;79.06
40872;BME280;26591;43.264;26.940;2022-11-14T08:02:55;100172.38;;;8.75;78.61
40872;BME280;26591;43.264;26.940;2022-11-14T08:05:21;100177.03;;;8.50;79.35
40872;BME280;26591;43.264;26.940;2022-11-14T08:07:50;100178.19;;;8.57;80.30
40872;BME280;26591;43.264;26.940;2022-11-14T08:10:16;100182.75;;;8.66;79.52
40872;BME280;26591;43.264;26.940;2022-11-14T08:12:43;100184.88;;;8.73;79.80
40872;BME280;26591;43.264;26.940;2022-11-14T08:15:10;100181.69;;;8.90;80.02
40872;BME280;26591;43.264;26.940;2022-11-14T08:17:37;100176.59;;;8.98;79.72
40872;BME280;26591;43.264;26.940;2022-11-14T08:20:07;100171.38;;;8.87;79.65
40872;BME280;26591;43.264;26.940;2022-11-14T08:22:33;100181.97;;;8.76;79.17
40872;BME280;26591;43.264;26.940;2022-11-14T08:24:58;100182.75;;;8.66;79.64
40872;BME280;26591;43.264;26.940;2022-11-14T08:27:24;100181.09;;;8.54;79.80
40872;BME280;26591;43.264;26.940;2022-11-14T08:29:50;100177.47;;;8.55;80.64
40872;BME280;26591;43.264;26.940;2022-11-14T08:32:17;100174.06;;;8.76;80.02
40872;BME280;26591;43.264;26.940;2022-11-14T08:34:42;100174.25;;;8.51;80.53
40872;BME280;26591;43.264;26.940;2022-11-14T08:37:08;100174.13;;;8.42;79.98
40872;BME280;26591;43.264;26.940;2022-11-14T08:39:33;100175.72;;;8.33;81.13
40872;BME280;26591;43.264;26.940;2022-11-14T08:41:59;100173.88;;;8.56;81.45
40872;BME280;26591;43.264;26.940;2022-11-14T08:44:24;100169.50;;;8.78;81.55
40872;BME280;26591;43.264;26.940;2022-11-14T08:46:50;100164.16;;;8.89;81.05
40872;BME280;26591;43.264;26.940;2022-11-14T08:49:16;100155.78;;;9.05;80.34
40872;BME280;26591;43.264;26.940;2022-11-14T08:51:41;100162.25;;;9.12;79.92
40872;BME280;26591;43.264;26.940;2022-11-14T08:54:07;100155.66;;;9.07;80.48
40872;BME280;26591;43.264;26.940;2022-11-14T08:56:32;100157.78;;;9.65;82.05
40872;BME280;26591;43.264;26.940;2022-11-14T08:58:58;100147.53;;;9.41;80.00
40872;BME280;26591;43.264;26.940;2022-11-14T09:01:24;100144.84;;;8.89;79.06
40872;BME280;26591;43.264;26.940;2022-11-14T09:03:49;100154.47;;;9.11;80.00
40872;BME280;26591;43.264;26.940;2022-11-14T09:06:15;100158.09;;;9.20;79.49
40872;BME280;26591;43.264;26.940;2022-11-14T09:08:41;100151.81;;;9.11;79.68
40872;BME280;26591;43.264;26.940;2022-11-14T09:11:06;100152.56;;;9.23;79.48
40872;BME280;26591;43.264;26.940;2022-11-14T09:13:33;100156.47;;;9.28;79.93
40872;BME280;26591;43.264;26.940;2022-11-14T09:15:58;100138.84;;;9.29;79.16
40872;BME280;26591;43.264;26.940;2022-11-14T09:18:24;100144.63;;;9.23;79.63
40872;BME280;26591;43.264;26.940;2022-11-14T09:20:50;100143.38;;;9.48;78.99
40872;BME280;26591;43.264;26.940;2022-11-14T09:23:15;100141.75;;;9.57;79.07
40872;BME280;26591;43.264;26.940;2022-11-14T09:25:41;100142.25;;;9.41;78.59
40872;BME280;26591;43.264;26.940;2022-11-14T09:28:07;100141.91;;;9.55;78.56
40872;BME280;26591;43.264;26.940;2022-11-14T09:30:34;100136.72;;;9.54;78.67
40872;BME280;26591;43.264;26.940;2022-11-14T09:33:01;100128.53;;;9.57;78.51
40872;BME280;26591;43.264;26.940;2022-11-14T09:35:28;100132.00;;;9.57;78.87
40872;BME280;26591;43.264;26.940;2022-11-14T09:38:12;100132.75;;;9.38;79.40
40872;BME280;26591;43.264;26.940;2022-11-14T09:46:26;100117.38;;;9.43;79.49
40872;BME280;26591;43.264;26.940;2022-11-14T09:48:52;100116.44;;;9.23;80.47
40872;BME280;26591;43.264;26.940;2022-11-14T09:51:32;100107.25;;;9.58;79.57
40872;BME280;26591;43.264;26.940;2022-11-14T09:56:26;100104.94;;;9.75;79.10
40872;BME280;26591;43.264;26.940;2022-11-14T09:58:53;100099.97;;;9.82;78.95
40872;BME280;26591;43.264;26.940;2022-11-14T10:04:18;100099.56;;;9.96;78.22
40872;BME280;26591;43.264;26.940;2022-11-14T10:07:13;100095.75;;;9.69;78.59
40872;BME280;26591;43.264;26.940;2022-11-14T10:12:13;100083.81;;;9.75;78.56
40872;BME280;26591;43.264;26.940;2022-11-14T10:20:41;100076.38;;;10.19;78.85
40872;BME280;26591;43.264;26.940;2022-11-14T10:26:12;100073.81;;;9.88;78.34
40872;BME280;26591;43.264;26.940;2022-11-14T10:32:33;100065.66;;;10.11;78.38
40872;BME280;26591;43.264;26.940;2022-11-14T10:35:09;100057.97;;;10.08;78.08
40872;BME280;26591;43.264;26.940;2022-11-14T10:40:28;100065.09;;;10.27;77.44
40872;BME280;26591;43.264;26.940;2022-11-14T10:43:04;100060.94;;;10.25;77.42
40872;BME280;26591;43.264;26.940;2022-11-14T10:45:46;100062.19;;;10.30;77.05
40872;BME280;26591;43.264;26.940;2022-11-14T10:48:27;100059.38;;;10.32;77.37
40872;BME280;26591;43.264;26.940;2022-11-14T10:50:57;100058.69;;;10.20;77.35
40872;BME280;26591;43.264;26.940;2022-11-14T10:56:04;100046.56;;;10.37;77.13
40872;BME280;26591;43.264;26.940;2022-11-14T10:58:29;100044.75;;;10.37;77.04
40872;BME280;26591;43.264;26.940;2022-11-14T11:00:55;100056.34;;;10.56;76.84
40872;BME280;26591;43.264;26.940;2022-11-14T11:03:39;100051.72;;;10.78;76.45
40872;BME280;26591;43.264;26.940;2022-11-14T11:06:23;100048.38;;;10.76;76.17
40872;BME280;26591;43.264;26.940;2022-11-14T11:08:50;100048.38;;;10.66;76.29
40872;BME280;26591;43.264;26.940;2022-11-14T11:11:38;100040.03;;;10.31;77.25
40872;BME280;26591;43.264;26.940;2022-11-14T11:14:04;100045.47;;;10.49;77.32
40872;BME280;26591;43.264;26.940;2022-11-14T11:16:30;100041.69;;;10.72;76.95
40872;BME280;26591;43.264;26.940;2022-11-14T11:19:22;100041.13;;;10.88;76.20
40872;BME280;26591;43.264;26.940;2022-11-14T11:21:50;100040.88;;;10.71;75.87
40872;BME280;26591;43.264;26.940;2022-11-14T11:24:30;100040.03;;;10.61;76.55
40872;BME280;26591;43.264;26.940;2022-11-14T11:30:02;100028.72;;;10.78;76.20
40872;BME280;26591;43.264;26.940;2022-11-14T11:32:31;100029.41;;;10.80;76.54
40872;BME280;26591;43.264;26.940;2022-11-14T11:34:59;100026.03;;;10.98;76.09
40872;BME280;26591;43.264;26.940;2022-11-14T11:37:30;100025.47;;;10.94;75.98
40872;BME280;26591;43.264;26.940;2022-11-14T11:40:02;100022.53;;;10.97;75.42
40872;BME280;26591;43.264;26.940;2022-11-14T11:42:41;100025.34;;;10.86;75.58
40872;BME280;26591;43.264;26.940;2022-11-14T11:45:18;100023.81;;;10.93;75.79
40872;BME280;26591;43.264;26.940;2022-11-14T11:47:57;100020.06;;;10.76;75.90
40872;BME280;26591;43.264;26.940;2022-11-14T11:50:23;100020.59;;;10.90;75.40
40872;BME280;26591;43.264;26.940;2022-11-14T11:52:58;100021.56;;;10.89;75.71
40872;BME280;26591;43.264;26.940;2022-11-14T11:55:31;100019.63;;;10.81;75.76
40872;BME280;26591;43.264;26.940;2022-11-14T11:58:22;100028.53;;;10.90;75.46
40872;BME280;26591;43.264;26.940;2022-11-14T12:00:55;100020.03;;;10.96;75.57
40872;BME280;26591;43.264;26.940;2022-11-14T12:03:23;100015.97;;;11.02;75.16
40872;BME280;26591;43.264;26.940;2022-11-14T12:11:04;100015.50;;;11.16;75.05
40872;BME280;26591;43.264;26.940;2022-11-14T12:16:22;100012.84;;;11.16;74.94
40872;BME280;26591;43.264;26.940;2022-11-14T12:19:24;100015.13;;;11.01;74.66
40872;BME280;26591;43.264;26.940;2022-11-14T12:27:48;100005.78;;;11.35;74.45
40872;BME280;26591;43.264;26.940;2022-11-14T12:30:21;100003.09;;;11.44;74.14
40872;BME280;26591;43.264;26.940;2022-11-14T12:35:31;100013.09;;;11.51;73.69
40872;BME280;26591;43.264;26.940;2022-11-14T12:37:58;100005.06;;;11.60;74.05
40872;BME280;26591;43.264;26.940;2022-11-14T12:40:39;99994.53;;;11.51;73.58
40872;BME280;26591;43.264;26.940;2022-11-14T12:43:35;100006.66;;;11.53;73.50
40872;BME280;26591;43.264;26.940;2022-11-14T12:48:30;100007.31;;;11.37;74.14
40872;BME280;26591;43.264;26.940;2022-11-14T12:50:57;99990.84;;;11.62;73.86
40872;BME280;26591;43.264;26.940;2022-11-14T12:58:49;99995.56;;;12.22;74.69
40872;BME280;26591;43.264;26.940;2022-11-14T13:01:57;99990.94;;;12.24;72.88
40872;BME280;26591;43.264;26.940;2022-11-14T13:04:51;99993.84;;;12.13;72.17
40872;BME280;26591;43.264;26.940;2022-11-14T13:10:38;99979.72;;;11.58;72.83
40872;BME280;26591;43.264;26.940;2022-11-14T13:13:14;99979.78;;;11.66;73.00
40872;BME280;26591;43.264;26.940;2022-11-14T13:16:00;99978.50;;;11.70;72.42
40872;BME280;26591;43.264;26.940;2022-11-14T13:19:19;99980.25;;;11.80;72.49
40872;BME280;26591;43.264;26.940;2022-11-14T13:27:33;99968.59;;;11.72;72.06
40872;BME280;26591;43.264;26.940;2022-11-14T13:30:00;99969.09;;;11.58;72.68
40872;BME280;26591;43.264;26.940;2022-11-14T13:35:25;99966.41;;;11.40;73.77
40872;BME280;26591;43.264;26.940;2022-11-14T13:40:59;99966.22;;;11.69;73.17
40872;BME280;26591;43.264;26.940;2022-11-14T13:52:00;99961.81;;;10.76;75.54
40872;BME280;26591;43.264;26.940;2022-11-14T13:54:25;99958.91;;;10.69;76.30
40872;BME280;26591;43.264;26.940;2022-11-14T14:00:04;99969.03;;;11.22;74.90
40872;BME280;26591;43.264;26.940;2022-11-14T14:08:27;99963.44;;;10.49;78.50
40872;BME280;26591;43.264;26.940;2022-11-14T14:23:55;99959.13;;;10.48;79.22
40872;BME280;26591;43.264;26.940;2022-11-14T14:29:12;99948.66;;;10.57;78.43
40872;BME280;26591;43.264;26.940;2022-11-14T14:31:41;99955.19;;;10.62;78.26
40872;BME280;26591;43.264;26.940;2022-11-14T14:34:24;99959.38;;;10.55;78.14
40872;BME280;26591;43.264;26.940;2022-11-14T14:36:53;99948.69;;;10.27;79.40
40872;BME280;26591;43.264;26.940;2022-11-14T14:39:21;99949.94;;;10.23;79.62
40872;BME280;26591;43.264;26.940;2022-11-14T14:41:47;99953.41;;;10.33;79.77
40872;BME280;26591;43.264;26.940;2022-11-14T14:44:25;99951.75;;;10.42;79.07
40872;BME280;26591;43.264;26.940;2022-11-14T14:46:52;99947.72;;;10.38;79.24
40872;BME280;26591;43.264;26.940;2022-11-14T14:49:25;99949.66;;;10.36;79.14